sensor_id;sensor_type;location;lat;lon;timestamp;temperature;humidity
46378;DHT22;32083;47.360;9.650;2023-06-22T04:02:25;21.40;99.90
46378;DHT22;32083;47.360;9.650;2023-06-22T04:04:51;21.30;99.90
46378;DHT22;32083;47.360;9.650;2023-06-22T04:07:18;21.40;99.90
46378;DHT22;32083;47.360;9.650;2023-06-22T04:09:44;21.30;99.90
46378;DHT22;32083;47.360;9.650;2023-06-22T04:12:10;21.30;99.90
46378;DHT22;32083;47.360;9.650;2023-06-22T04:14:37;21.40;99.90
46378;DHT22;32083;47.360;9.650;2023-06-22T04:17:04;21.40;99.90
46378;DHT22;32083;47.360;9.650;2023-06-22T04:19:30;21.40;99.90
46378;DHT22;32083;47.360;9.650;2023-06-22T04:21:56;21.30;99.90
46378;DHT22;32083;47.360;9.650;2023-06-22T04:24:21;21.30;99.90
46378;DHT22;32083;47.360;9.650;2023-06-22T04:26:47;21.40;99.90
46378;DHT22;32083;47.360;9.650;2023-06-22T04:29:14;21.30;99.90
46378;DHT22;32083;47.360;9.650;2023-06-22T04:31:40;21.40;99.90
46378;DHT22;32083;47.360;9.650;2023-06-22T04:34:07;21.50;99.90
46378;DHT22;32083;47.360;9.650;2023-06-22T04:36:38;21.40;99.90
46378;DHT22;32083;47.360;9.650;2023-06-22T04:39:09;21.40;99.90
46378;DHT22;32083;47.360;9.650;2023-06-22T04:41:40;21.50;99.90
46378;DHT22;32083;47.360;9.650;2023-06-22T04:44:10;21.60;99.90
46378;DHT22;32083;47.360;9.650;2023-06-22T04:46:36;21.60;99.90
46378;DHT22;32083;47.360;9.650;2023-06-22T04:49:07;21.80;99.90
46378;DHT22;32083;47.360;9.650;2023-06-22T04:51:42;21.90;99.90
46378;DHT22;32083;47.360;9.650;2023-06-22T04:54:09;22.10;99.90
46378;DHT22;32083;47.360;9.650;2023-06-22T04:56:35;22.20;99.90
46378;DHT22;32083;47.360;9.650;2023-06-22T04:59:01;22.40;99.90
46378;DHT22;32083;47.360;9.650;2023-06-22T05:01:29;22.50;99.90
46378;DHT22;32083;47.360;9.650;2023-06-22T05:03:57;22.60;99.90
46378;DHT22;32083;47.360;9.650;2023-06-22T05:06:24;22.80;99.90
46378;DHT22;32083;47.360;9.650;2023-06-22T05:08:54;22.90;99.90
46378;DHT22;32083;47.360;9.650;2023-06-22T05:11:24;23.00;99.90
46378;DHT22;32083;47.360;9.650;2023-06-22T05:13:50;23.10;99.40
46378;DHT22;32083;47.360;9.650;2023-06-22T05:16:16;23.20;99.30
46378;DHT22;32083;47.360;9.650;2023-06-22T05:18:42;23.30;99.30
46378;DHT22;32083;47.360;9.650;2023-06-22T05:21:09;23.40;99.30
46378;DHT22;32083;47.360;9.650;2023-06-22T05:23:34;23.30;99.10
46378;DHT22;32083;47.360;9.650;2023-06-22T05:26:01;23.40;99.00
46378;DHT22;32083;47.360;9.650;2023-06-22T05:28:27;23.50;99.10
46378;DHT22;32083;47.360;9.650;2023-06-22T05:30:53;23.40;98.90
46378;DHT22;32083;47.360;9.650;2023-06-22T05:33:19;23.30;98.80
46378;DHT22;32083;47.360;9.650;2023-06-22T05:35:45;23.50;98.90
46378;DHT22;32083;47.360;9.650;2023-06-22T05:38:10;23.80;98.90
46378;DHT22;32083;47.360;9.650;2023-06-22T05:40:36;23.90;98.40
46378;DHT22;32083;47.360;9.650;2023-06-22T05:43:02;24.00;98.20
46378;DHT22;32083;47.360;9.650;2023-06-22T05:45:28;24.10;98.20
46378;DHT22;32083;47.360;9.650;2023-06-22T05:47:54;24.20;97.80
46378;DHT22;32083;47.360;9.650;2023-06-22T05:50:20;24.40;97.70
46378;DHT22;32083;47.360;9.650;2023-06-22T05:52:46;24.30;97.50
46378;DHT22;32083;47.360;9.650;2023-06-22T05:55:12;24.30;97.40
46378;DHT22;32083;47.360;9.650;2023-06-22T05:57:38;24.50;97.30
46378;DHT22;32083;47.360;9.650;2023-06-22T06:00:04;24.60;97.70
46378;DHT22;32083;47.360;9.650;2023-06-22T06:02:36;24.80;97.40
46378;DHT22;32083;47.360;9.650;2023-06-22T06:05:02;25.00;96.80
46378;DHT22;32083;47.360;9.650;2023-06-22T06:07:29;24.90;96.80
46378;DHT22;32083;47.360;9.650;2023-06-22T06:09:55;24.70;96.90
46378;DHT22;32083;47.360;9.650;2023-06-22T06:12:21;24.80;97.20
46378;DHT22;32083;47.360;9.650;2023-06-22T06:14:47;24.90;97.00
46378;DHT22;32083;47.360;9.650;2023-06-22T06:17:13;24.60;96.40
46378;DHT22;32083;47.360;9.650;2023-06-22T06:19:39;24.70;96.80
46378;DHT22;32083;47.360;9.650;2023-06-22T06:22:05;24.70;96.70
46378;DHT22;32083;47.360;9.650;2023-06-22T06:24:31;24.60;96.60
46378;DHT22;32083;47.360;9.650;2023-06-22T06:26:57;24.50;96.70
46378;DHT22;32083;47.360;9.650;2023-06-22T06:29:22;24.50;96.80
46378;DHT22;32083;47.360;9.650;2023-06-22T06:31:49;24.60;96.90
46378;DHT22;32083;47.360;9.650;2023-06-22T06:34:15;24.50;96.70
46378;DHT22;32083;47.360;9.650;2023-06-22T06:36:41;24.70;97.10
46378;DHT22;32083;47.360;9.650;2023-06-22T06:39:07;25.00;96.40
46378;DHT22;32083;47.360;9.650;2023-06-22T06:41:34;25.10;96.30
46378;DHT22;32083;47.360;9.650;2023-06-22T06:44:00;24.80;95.50
46378;DHT22;32083;47.360;9.650;2023-06-22T06:46:26;24.90;96.30
46378;DHT22;32083;47.360;9.650;2023-06-22T06:48:51;24.70;95.90
46378;DHT22;32083;47.360;9.650;2023-06-22T06:51:17;24.60;96.30
46378;DHT22;32083;47.360;9.650;2023-06-22T06:53:43;24.30;96.70
46378;DHT22;32083;47.360;9.650;2023-06-22T06:56:09;24.50;97.00
46378;DHT22;32083;47.360;9.650;2023-06-22T06:58:36;24.40;97.10
46378;DHT22;32083;47.360;9.650;2023-06-22T07:01:02;24.60;97.20
46378;DHT22;32083;47.360;9.650;2023-06-22T07:03:28;25.00;97.00
46378;DHT22;32083;47.360;9.650;2023-06-22T07:05:54;25.30;96.30
46378;DHT22;32083;47.360;9.650;2023-06-22T07:08:20;25.30;96.40
46378;DHT22;32083;47.360;9.650;2023-06-22T07:10:46;25.40;95.80
46378;DHT22;32083;47.360;9.650;2023-06-22T07:13:12;25.60;95.80
46378;DHT22;32083;47.360;9.650;2023-06-22T07:15:38;25.90;95.70
46378;DHT22;32083;47.360;9.650;2023-06-22T07:18:04;25.80;95.20
46378;DHT22;32083;47.360;9.650;2023-06-22T07:20:30;25.70;95.90
46378;DHT22;32083;47.360;9.650;2023-06-22T07:22:56;25.60;95.80
46378;DHT22;32083;47.360;9.650;2023-06-22T07:25:23;25.30;95.90
46378;DHT22;32083;47.360;9.650;2023-06-22T07:28:01;25.10;96.10
46378;DHT22;32083;47.360;9.650;2023-06-22T07:30:28;25.10;96.50
46378;DHT22;32083;47.360;9.650;2023-06-22T07:32:54;25.30;96.60
46378;DHT22;32083;47.360;9.650;2023-06-22T07:35:20;25.30;95.90
46378;DHT22;32083;47.360;9.650;2023-06-22T07:37:46;25.20;96.10
46378;DHT22;32083;47.360;9.650;2023-06-22T07:40:12;25.10;96.20
46378;DHT22;32083;47.360;9.650;2023-06-22T07:42:38;25.10;96.60
46378;DHT22;32083;47.360;9.650;2023-06-22T07:45:05;25.20;96.70
46378;DHT22;32083;47.360;9.650;2023-06-22T07:47:33;25.20;96.90
46378;DHT22;32083;47.360;9.650;2023-06-22T07:50:01;25.20;96.80
46378;DHT22;32083;47.360;9.650;2023-06-22T07:52:28;25.20;96.60
46378;DHT22;32083;47.360;9.650;2023-06-22T07:54:54;25.50;96.60
46378;DHT22;32083;47.360;9.650;2023-06-22T07:57:20;25.90;96.40
46378;DHT22;32083;47.360;9.650;2023-06-22T07:59:46;26.20;96.40
46378;DHT22;32083;47.360;9.650;2023-06-22T08:02:13;26.00;96.10
46378;DHT22;32083;47.360;9.650;2023-06-22T08:04:39;25.80;96.20
46378;DHT22;32083;47.360;9.650;2023-06-22T08:07:06;26.10;96.70
46378;DHT22;32083;47.360;9.650;2023-06-22T08:09:33;25.90;96.60
46378;DHT22;32083;47.360;9.650;2023-06-22T08:12:00;25.80;96.40
46378;DHT22;32083;47.360;9.650;2023-06-22T08:14:26;25.60;96.40
46378;DHT22;32083;47.360;9.650;2023-06-22T08:16:52;25.50;96.60
46378;DHT22;32083;47.360;9.650;2023-06-22T08:19:18;25.40;96.70
46378;DHT22;32083;47.360;9.650;2023-06-22T08:21:44;25.20;96.90
46378;DHT22;32083;47.360;9.650;2023-06-22T08:24:10;25.20;97.20
46378;DHT22;32083;47.360;9.650;2023-06-22T08:26:36;25.20;97.30
46378;DHT22;32083;47.360;9.650;2023-06-22T08:29:03;25.10;96.90
46378;DHT22;32083;47.360;9.650;2023-06-22T08:31:30;25.20;96.90
46378;DHT22;32083;47.360;9.650;2023-06-22T08:33:57;25.20;97.00
46378;DHT22;32083;47.360;9.650;2023-06-22T08:36:23;25.20;96.50
46378;DHT22;32083;47.360;9.650;2023-06-22T08:38:50;24.90;96.20
46378;DHT22;32083;47.360;9.650;2023-06-22T08:41:17;24.90;96.40
46378;DHT22;32083;47.360;9.650;2023-06-22T08:43:44;24.70;96.80
46378;DHT22;32083;47.360;9.650;2023-06-22T08:46:11;24.80;96.80
46378;DHT22;32083;47.360;9.650;2023-06-22T08:48:37;24.80;96.90
46378;DHT22;32083;47.360;9.650;2023-06-22T08:51:04;24.70;96.90
46378;DHT22;32083;47.360;9.650;2023-06-22T08:53:30;24.90;97.20
46378;DHT22;32083;47.360;9.650;2023-06-22T08:55:56;24.80;96.90
46378;DHT22;32083;47.360;9.650;2023-06-22T08:58:22;24.80;97.20
46378;DHT22;32083;47.360;9.650;2023-06-22T09:00:49;24.80;96.60
46378;DHT22;32083;47.360;9.650;2023-06-22T09:03:17;24.90;96.70
46378;DHT22;32083;47.360;9.650;2023-06-22T09:05:43;24.90;97.00
46378;DHT22;32083;47.360;9.650;2023-06-22T09:08:11;24.80;96.50
46378;DHT22;32083;47.360;9.650;2023-06-22T09:10:37;25.00;96.30
46378;DHT22;32083;47.360;9.650;2023-06-22T09:13:03;25.00;96.40
46378;DHT22;32083;47.360;9.650;2023-06-22T09:15:29;24.90;96.70
46378;DHT22;32083;47.360;9.650;2023-06-22T09:17:55;24.80;96.40
46378;DHT22;32083;47.360;9.650;2023-06-22T09:20:22;24.50;96.90
46378;DHT22;32083;47.360;9.650;2023-06-22T09:22:48;24.70;96.90
46378;DHT22;32083;47.360;9.650;2023-06-22T09:25:14;24.80;96.90
46378;DHT22;32083;47.360;9.650;2023-06-22T09:27:40;24.70;96.60
46378;DHT22;32083;47.360;9.650;2023-06-22T09:30:07;25.00;96.80
46378;DHT22;32083;47.360;9.650;2023-06-22T09:32:33;25.00;96.20
46378;DHT22;32083;47.360;9.650;2023-06-22T09:35:02;25.10;96.40
46378;DHT22;32083;47.360;9.650;2023-06-22T09:37:28;25.20;96.60
46378;DHT22;32083;47.360;9.650;2023-06-22T09:39:53;25.20;96.40
46378;DHT22;32083;47.360;9.650;2023-06-22T09:42:19;25.10;96.30
46378;DHT22;32083;47.360;9.650;2023-06-22T09:44:46;25.40;96.10
46378;DHT22;32083;47.360;9.650;2023-06-22T09:47:12;25.60;96.10
46378;DHT22;32083;47.360;9.650;2023-06-22T09:49:38;25.70;95.90
46378;DHT22;32083;47.360;9.650;2023-06-22T09:52:04;25.90;96.10
46378;DHT22;32083;47.360;9.650;2023-06-22T09:54:31;25.80;95.60
46378;DHT22;32083;47.360;9.650;2023-06-22T09:56:56;25.80;95.50
46378;DHT22;32083;47.360;9.650;2023-06-22T09:59:22;26.00;95.80
46378;DHT22;32083;47.360;9.650;2023-06-22T10:01:48;26.00;95.40
46378;DHT22;32083;47.360;9.650;2023-06-22T10:04:14;25.90;95.50
46378;DHT22;32083;47.360;9.650;2023-06-22T10:06:40;25.90;95.20
46378;DHT22;32083;47.360;9.650;2023-06-22T10:09:07;25.90;95.40
46378;DHT22;32083;47.360;9.650;2023-06-22T10:11:33;26.00;95.60
46378;DHT22;32083;47.360;9.650;2023-06-22T10:14:01;26.20;95.30
46378;DHT22;32083;47.360;9.650;2023-06-22T10:16:31;26.20;95.50
46378;DHT22;32083;47.360;9.650;2023-06-22T10:18:57;26.20;95.30
46378;DHT22;32083;47.360;9.650;2023-06-22T10:21:23;26.10;95.10
46378;DHT22;32083;47.360;9.650;2023-06-22T10:23:50;26.30;95.40
46378;DHT22;32083;47.360;9.650;2023-06-22T10:26:15;26.30;94.90
46378;DHT22;32083;47.360;9.650;2023-06-22T10:28:41;26.50;95.20
46378;DHT22;32083;47.360;9.650;2023-06-22T10:31:07;26.70;94.80
46378;DHT22;32083;47.360;9.650;2023-06-22T10:33:33;26.60;94.70
46378;DHT22;32083;47.360;9.650;2023-06-22T10:35:59;26.60;95.00
46378;DHT22;32083;47.360;9.650;2023-06-22T10:38:25;26.60;94.90
46378;DHT22;32083;47.360;9.650;2023-06-22T10:40:51;26.70;94.70
46378;DHT22;32083;47.360;9.650;2023-06-22T10:43:17;26.80;94.80
46378;DHT22;32083;47.360;9.650;2023-06-22T10:45:43;27.00;94.60
46378;DHT22;32083;47.360;9.650;2023-06-22T10:48:09;27.00;94.80
46378;DHT22;32083;47.360;9.650;2023-06-22T10:50:35;27.10;94.50
46378;DHT22;32083;47.360;9.650;2023-06-22T10:53:01;27.20;94.30
46378;DHT22;32083;47.360;9.650;2023-06-22T10:55:27;27.20;93.80
46378;DHT22;32083;47.360;9.650;2023-06-22T10:57:53;27.40;94.00
46378;DHT22;32083;47.360;9.650;2023-06-22T11:00:19;27.60;94.10
46378;DHT22;32083;47.360;9.650;2023-06-22T11:02:45;27.60;93.60
46378;DHT22;32083;47.360;9.650;2023-06-22T11:05:11;27.70;94.00
46378;DHT22;32083;47.360;9.650;2023-06-22T11:07:38;27.70;93.70
46378;DHT22;32083;47.360;9.650;2023-06-22T11:10:07;27.80;93.70
46378;DHT22;32083;47.360;9.650;2023-06-22T11:12:33;27.70;94.10
46378;DHT22;32083;47.360;9.650;2023-06-22T11:14:59;27.80;93.90
46378;DHT22;32083;47.360;9.650;2023-06-22T11:17:25;27.80;93.60
46378;DHT22;32083;47.360;9.650;2023-06-22T11:19:51;27.90;94.40
46378;DHT22;32083;47.360;9.650;2023-06-22T11:22:17;28.00;93.90
46378;DHT22;32083;47.360;9.650;2023-06-22T11:24:43;28.10;93.90
46378;DHT22;32083;47.360;9.650;2023-06-22T11:27:09;28.10;93.80
46378;DHT22;32083;47.360;9.650;2023-06-22T11:29:35;28.20;94.30
46378;DHT22;32083;47.360;9.650;2023-06-22T11:32:01;28.20;94.30
46378;DHT22;32083;47.360;9.650;2023-06-22T11:34:27;28.20;93.90
46378;DHT22;32083;47.360;9.650;2023-06-22T11:36:53;28.20;93.80
46378;DHT22;32083;47.360;9.650;2023-06-22T11:39:19;28.20;93.60
46378;DHT22;32083;47.360;9.650;2023-06-22T11:41:45;28.20;93.70
46378;DHT22;32083;47.360;9.650;2023-06-22T11:44:11;28.20;93.20
46378;DHT22;32083;47.360;9.650;2023-06-22T11:46:37;28.20;93.30
46378;DHT22;32083;47.360;9.650;2023-06-22T11:49:03;28.10;93.60
46378;DHT22;32083;47.360;9.650;2023-06-22T11:51:29;28.10;93.90
46378;DHT22;32083;47.360;9.650;2023-06-22T11:53:57;28.20;94.10
46378;DHT22;32083;47.360;9.650;2023-06-22T11:56:23;28.30;93.40
46378;DHT22;32083;47.360;9.650;2023-06-22T11:58:49;28.40;93.00
46378;DHT22;32083;47.360;9.650;2023-06-22T12:01:15;28.40;93.20
46378;DHT22;32083;47.360;9.650;2023-06-22T12:03:41;28.40;93.30
46378;DHT22;32083;47.360;9.650;2023-06-22T12:06:09;28.40;93.10
46378;DHT22;32083;47.360;9.650;2023-06-22T12:08:35;28.40;93.40
46378;DHT22;32083;47.360;9.650;2023-06-22T12:11:01;28.50;93.30
46378;DHT22;32083;47.360;9.650;2023-06-22T12:13:27;28.50;93.20
46378;DHT22;32083;47.360;9.650;2023-06-22T12:15:53;28.40;93.10
46378;DHT22;32083;47.360;9.650;2023-06-22T12:18:19;28.40;93.30
46378;DHT22;32083;47.360;9.650;2023-06-22T12:20:47;28.40;93.30
46378;DHT22;32083;47.360;9.650;2023-06-22T12:23:14;28.50;93.30
46378;DHT22;32083;47.360;9.650;2023-06-22T12:25:40;28.30;93.50
46378;DHT22;32083;47.360;9.650;2023-06-22T12:28:06;28.40;93.50
46378;DHT22;32083;47.360;9.650;2023-06-22T12:30:35;28.50;93.40
46378;DHT22;32083;47.360;9.650;2023-06-22T12:33:01;28.50;93.20
46378;DHT22;32083;47.360;9.650;2023-06-22T12:35:27;28.50;93.10
46378;DHT22;32083;47.360;9.650;2023-06-22T12:37:52;28.60;92.80
46378;DHT22;32083;47.360;9.650;2023-06-22T12:40:18;28.60;92.90
46378;DHT22;32083;47.360;9.650;2023-06-22T12:42:47;28.70;92.80
46378;DHT22;32083;47.360;9.650;2023-06-22T12:45:13;28.70;93.20
46378;DHT22;32083;47.360;9.650;2023-06-22T12:47:40;28.80;92.60
46378;DHT22;32083;47.360;9.650;2023-06-22T12:50:06;28.80;92.70
46378;DHT22;32083;47.360;9.650;2023-06-22T12:52:32;28.70;92.30
46378;DHT22;32083;47.360;9.650;2023-06-22T12:54:58;28.60;91.90
46378;DHT22;32083;47.360;9.650;2023-06-22T12:57:24;28.60;92.40
46378;DHT22;32083;47.360;9.650;2023-06-22T12:59:51;28.60;92.40
46378;DHT22;32083;47.360;9.650;2023-06-22T13:02:17;28.70;92.40
46378;DHT22;32083;47.360;9.650;2023-06-22T13:04:42;28.80;92.20
46378;DHT22;32083;47.360;9.650;2023-06-22T13:07:09;28.80;92.50
46378;DHT22;32083;47.360;9.650;2023-06-22T13:09:36;28.90;92.10
46378;DHT22;32083;47.360;9.650;2023-06-22T13:12:02;29.00;92.50
46378;DHT22;32083;47.360;9.650;2023-06-22T13:14:28;29.10;91.50
46378;DHT22;32083;47.360;9.650;2023-06-22T13:16:54;29.30;91.60
46378;DHT22;32083;47.360;9.650;2023-06-22T13:19:20;29.40;90.80
46378;DHT22;32083;47.360;9.650;2023-06-22T13:21:46;29.80;90.90
46378;DHT22;32083;47.360;9.650;2023-06-22T13:24:12;30.00;90.70
46378;DHT22;32083;47.360;9.650;2023-06-22T13:26:38;30.10;90.70
46378;DHT22;32083;47.360;9.650;2023-06-22T13:29:04;30.00;88.50
46378;DHT22;32083;47.360;9.650;2023-06-22T13:31:30;30.10;90.30
46378;DHT22;32083;47.360;9.650;2023-06-22T13:33:56;30.10;90.00
46378;DHT22;32083;47.360;9.650;2023-06-22T13:36:21;30.20;88.90
46378;DHT22;32083;47.360;9.650;2023-06-22T13:38:49;30.30;89.20
46378;DHT22;32083;47.360;9.650;2023-06-22T13:41:14;30.40;88.30
46378;DHT22;32083;47.360;9.650;2023-06-22T13:43:40;30.30;87.10
46378;DHT22;32083;47.360;9.650;2023-06-22T13:46:06;30.20;85.80
46378;DHT22;32083;47.360;9.650;2023-06-22T13:48:32;30.10;85.10
46378;DHT22;32083;47.360;9.650;2023-06-22T13:50:58;30.10;87.00
46378;DHT22;32083;47.360;9.650;2023-06-22T13:53:25;30.10;88.00
46378;DHT22;32083;47.360;9.650;2023-06-22T13:55:51;30.20;87.00
46378;DHT22;32083;47.360;9.650;2023-06-22T13:58:17;30.30;87.40
46378;DHT22;32083;47.360;9.650;2023-06-22T14:00:45;30.40;87.40
46378;DHT22;32083;47.360;9.650;2023-06-22T14:03:11;30.40;88.20
46378;DHT22;32083;47.360;9.650;2023-06-22T14:05:37;30.40;87.80
46378;DHT22;32083;47.360;9.650;2023-06-22T14:08:03;30.20;87.80
46378;DHT22;32083;47.360;9.650;2023-06-22T14:10:29;30.10;87.70
46378;DHT22;32083;47.360;9.650;2023-06-22T14:12:55;30.10;87.80
46378;DHT22;32083;47.360;9.650;2023-06-22T14:15:20;30.10;88.00
46378;DHT22;32083;47.360;9.650;2023-06-22T14:17:46;30.10;88.00
46378;DHT22;32083;47.360;9.650;2023-06-22T14:20:12;30.00;87.80
46378;DHT22;32083;47.360;9.650;2023-06-22T14:22:38;29.90;87.70
46378;DHT22;32083;47.360;9.650;2023-06-22T14:25:06;30.00;87.10
46378;DHT22;32083;47.360;9.650;2023-06-22T14:27:32;29.90;86.70
46378;DHT22;32083;47.360;9.650;2023-06-22T14:29:58;29.80;88.80
46378;DHT22;32083;47.360;9.650;2023-06-22T14:32:23;29.80;90.00
46378;DHT22;32083;47.360;9.650;2023-06-22T14:34:50;29.70;89.60
46378;DHT22;32083;47.360;9.650;2023-06-22T14:37:16;29.70;89.90
46378;DHT22;32083;47.360;9.650;2023-06-22T14:39:42;29.70;90.20
46378;DHT22;32083;47.360;9.650;2023-06-22T14:42:09;29.70;89.70
46378;DHT22;32083;47.360;9.650;2023-06-22T14:44:34;29.60;89.00
46378;DHT22;32083;47.360;9.650;2023-06-22T14:47:01;29.70;88.70
46378;DHT22;32083;47.360;9.650;2023-06-22T14:49:27;29.70;86.60
46378;DHT22;32083;47.360;9.650;2023-06-22T14:51:53;29.70;88.60
46378;DHT22;32083;47.360;9.650;2023-06-22T14:54:19;29.60;88.70
46378;DHT22;32083;47.360;9.650;2023-06-22T14:56:45;29.60;87.60
46378;DHT22;32083;47.360;9.650;2023-06-22T14:59:13;29.50;88.00
46378;DHT22;32083;47.360;9.650;2023-06-22T15:01:38;29.40;88.00
46378;DHT22;32083;47.360;9.650;2023-06-22T15:04:04;29.30;88.40
46378;DHT22;32083;47.360;9.650;2023-06-22T15:06:31;29.20;89.00
46378;DHT22;32083;47.360;9.650;2023-06-22T15:08:57;29.10;90.30
46378;DHT22;32083;47.360;9.650;2023-06-22T15:11:23;29.00;90.40
46378;DHT22;32083;47.360;9.650;2023-06-22T15:13:49;29.00;90.30
46378;DHT22;32083;47.360;9.650;2023-06-22T15:16:15;28.80;90.30
46378;DHT22;32083;47.360;9.650;2023-06-22T15:18:41;28.60;91.40
46378;DHT22;32083;47.360;9.650;2023-06-22T15:21:07;28.30;93.20
46378;DHT22;32083;47.360;9.650;2023-06-22T15:23:33;27.90;94.20
46378;DHT22;32083;47.360;9.650;2023-06-22T15:26:02;27.70;95.20
46378;DHT22;32083;47.360;9.650;2023-06-22T15:28:28;27.60;95.90
46378;DHT22;32083;47.360;9.650;2023-06-22T15:30:54;27.50;96.20
46378;DHT22;32083;47.360;9.650;2023-06-22T15:33:21;27.50;95.90
46378;DHT22;32083;47.360;9.650;2023-06-22T15:35:47;27.60;95.80
46378;DHT22;32083;47.360;9.650;2023-06-22T15:38:13;27.60;96.20
46378;DHT22;32083;47.360;9.650;2023-06-22T15:40:39;27.50;96.50
46378;DHT22;32083;47.360;9.650;2023-06-22T15:43:05;27.50;96.70
46378;DHT22;32083;47.360;9.650;2023-06-22T15:45:31;27.40;96.90
46378;DHT22;32083;47.360;9.650;2023-06-22T15:47:57;27.40;97.10
46378;DHT22;32083;47.360;9.650;2023-06-22T15:50:23;27.30;96.30
46378;DHT22;32083;47.360;9.650;2023-06-22T15:52:49;27.40;96.40
46378;DHT22;32083;47.360;9.650;2023-06-22T15:55:17;27.40;96.60
46378;DHT22;32083;47.360;9.650;2023-06-22T15:57:43;27.40;95.70
46378;DHT22;32083;47.360;9.650;2023-06-22T16:00:16;27.40;95.40
46378;DHT22;32083;47.360;9.650;2023-06-22T16:02:46;27.40;94.80
46378;DHT22;32083;47.360;9.650;2023-06-22T16:05:12;27.50;94.20
46378;DHT22;32083;47.360;9.650;2023-06-22T16:07:39;27.50;94.40
46378;DHT22;32083;47.360;9.650;2023-06-22T16:10:06;27.60;94.20
46378;DHT22;32083;47.360;9.650;2023-06-22T16:12:34;27.70;92.70
46378;DHT22;32083;47.360;9.650;2023-06-22T16:15:00;27.80;93.20
46378;DHT22;32083;47.360;9.650;2023-06-22T16:17:26;27.80;92.60
46378;DHT22;32083;47.360;9.650;2023-06-22T16:19:53;27.80;93.20
46378;DHT22;32083;47.360;9.650;2023-06-22T16:22:23;27.80;93.20
46378;DHT22;32083;47.360;9.650;2023-06-22T16:24:49;27.80;92.60
46378;DHT22;32083;47.360;9.650;2023-06-22T16:27:15;27.80;92.50
46378;DHT22;32083;47.360;9.650;2023-06-22T16:29:41;27.80;92.90
46378;DHT22;32083;47.360;9.650;2023-06-22T16:32:07;27.90;93.10
46378;DHT22;32083;47.360;9.650;2023-06-22T16:34:33;27.80;92.80
46378;DHT22;32083;47.360;9.650;2023-06-22T16:36:59;27.80;92.60
46378;DHT22;32083;47.360;9.650;2023-06-22T16:39:26;27.80;92.70
46378;DHT22;32083;47.360;9.650;2023-06-22T16:41:52;27.90;93.40
46378;DHT22;32083;47.360;9.650;2023-06-22T16:44:18;27.90;93.00
46378;DHT22;32083;47.360;9.650;2023-06-22T16:46:44;27.90;92.60
46378;DHT22;32083;47.360;9.650;2023-06-22T16:49:10;27.90;92.30
46378;DHT22;32083;47.360;9.650;2023-06-22T16:51:36;27.80;92.20
46378;DHT22;32083;47.360;9.650;2023-06-22T16:54:02;27.80;92.80
46378;DHT22;32083;47.360;9.650;2023-06-22T16:56:29;27.80;93.20
46378;DHT22;32083;47.360;9.650;2023-06-22T16:58:58;27.80;93.70
46378;DHT22;32083;47.360;9.650;2023-06-22T17:01:25;27.70;93.80
46378;DHT22;32083;47.360;9.650;2023-06-22T17:04:07;27.70;93.30
46378;DHT22;32083;47.360;9.650;2023-06-22T17:06:35;27.70;93.00
46378;DHT22;32083;47.360;9.650;2023-06-22T17:09:02;27.70;93.20
46378;DHT22;32083;47.360;9.650;2023-06-22T17:11:30;27.70;93.00
46378;DHT22;32083;47.360;9.650;2023-06-22T17:13:59;27.60;92.90
46378;DHT22;32083;47.360;9.650;2023-06-22T17:16:29;27.70;92.80
46378;DHT22;32083;47.360;9.650;2023-06-22T17:18:57;27.60;92.40
46378;DHT22;32083;47.360;9.650;2023-06-22T17:21:24;27.50;92.40
46378;DHT22;32083;47.360;9.650;2023-06-22T17:23:50;27.50;92.40
46378;DHT22;32083;47.360;9.650;2023-06-22T17:26:17;27.40;92.80
46378;DHT22;32083;47.360;9.650;2023-06-22T17:28:47;27.40;92.70
46378;DHT22;32083;47.360;9.650;2023-06-22T17:31:13;27.40;92.70
46378;DHT22;32083;47.360;9.650;2023-06-22T17:33:39;27.30;91.50
46378;DHT22;32083;47.360;9.650;2023-06-22T17:36:12;27.30;91.60
46378;DHT22;32083;47.360;9.650;2023-06-22T17:38:41;27.30;89.40
46378;DHT22;32083;47.360;9.650;2023-06-22T17:41:07;27.20;90.30
46378;DHT22;32083;47.360;9.650;2023-06-22T17:43:43;27.10;88.20
46378;DHT22;32083;47.360;9.650;2023-06-22T17:46:10;26.90;87.40
46378;DHT22;32083;47.360;9.650;2023-06-22T17:48:36;26.70;90.70
46378;DHT22;32083;47.360;9.650;2023-06-22T17:51:02;26.20;92.10
46378;DHT22;32083;47.360;9.650;2023-06-22T17:53:28;25.60;93.20
46378;DHT22;32083;47.360;9.650;2023-06-22T17:55:54;25.30;94.60
46378;DHT22;32083;47.360;9.650;2023-06-22T17:58:20;25.00;95.10
46378;DHT22;32083;47.360;9.650;2023-06-22T18:00:47;24.90;95.70
46378;DHT22;32083;47.360;9.650;2023-06-22T18:03:13;24.50;95.30
46378;DHT22;32083;47.360;9.650;2023-06-22T18:05:46;24.30;95.70
46378;DHT22;32083;47.360;9.650;2023-06-22T18:08:13;23.80;96.70
46378;DHT22;32083;47.360;9.650;2023-06-22T18:10:42;23.40;97.80
46378;DHT22;32083;47.360;9.650;2023-06-22T18:13:09;23.10;98.40
46378;DHT22;32083;47.360;9.650;2023-06-22T18:15:37;23.10;98.50
46378;DHT22;32083;47.360;9.650;2023-06-22T18:18:04;22.90;99.00
46378;DHT22;32083;47.360;9.650;2023-06-22T18:20:31;22.90;99.10
46378;DHT22;32083;47.360;9.650;2023-06-22T18:22:59;22.60;99.20
46378;DHT22;32083;47.360;9.650;2023-06-22T18:25:25;22.50;99.60
46378;DHT22;32083;47.360;9.650;2023-06-22T18:27:52;22.60;99.80
46378;DHT22;32083;47.360;9.650;2023-06-22T18:30:19;22.50;99.90
46378;DHT22;32083;47.360;9.650;2023-06-22T18:32:45;22.60;99.90
46378;DHT22;32083;47.360;9.650;2023-06-22T18:35:12;22.70;99.90
46378;DHT22;32083;47.360;9.650;2023-06-22T18:37:39;22.80;99.70
46378;DHT22;32083;47.360;9.650;2023-06-22T18:40:08;22.60;99.60
46378;DHT22;32083;47.360;9.650;2023-06-22T18:42:48;22.80;99.60
46378;DHT22;32083;47.360;9.650;2023-06-22T18:45:24;22.90;99.80
46378;DHT22;32083;47.360;9.650;2023-06-22T18:48:25;22.90;99.90
46378;DHT22;32083;47.360;9.650;2023-06-22T18:50:51;22.80;99.90
46378;DHT22;32083;47.360;9.650;2023-06-22T18:53:27;22.70;99.90
46378;DHT22;32083;47.360;9.650;2023-06-22T18:56:14;22.70;99.90
46378;DHT22;32083;47.360;9.650;2023-06-22T18:58:40;22.80;99.90
46378;DHT22;32083;47.360;9.650;2023-06-22T19:01:25;22.80;99.90
46378;DHT22;32083;47.360;9.650;2023-06-22T19:03:51;22.80;99.90
46378;DHT22;32083;47.360;9.650;2023-06-22T19:09:17;22.80;99.90
46378;DHT22;32083;47.360;9.650;2023-06-22T19:11:47;22.70;99.90
46378;DHT22;32083;47.360;9.650;2023-06-22T19:14:23;22.70;99.90
46378;DHT22;32083;47.360;9.650;2023-06-22T19:16:59;22.70;99.90
46378;DHT22;32083;47.360;9.650;2023-06-22T19:19:25;22.70;99.90
46378;DHT22;32083;47.360;9.650;2023-06-22T19:22:00;22.40;99.90
46378;DHT22;32083;47.360;9.650;2023-06-22T19:24:30;22.50;99.80
46378;DHT22;32083;47.360;9.650;2023-06-22T19:26:57;22.50;98.70
46378;DHT22;32083;47.360;9.650;2023-06-22T19:29:23;22.50;97.50
46378;DHT22;32083;47.360;9.650;2023-06-22T19:31:50;22.60;95.20